Time;durP1;ratioP1;P1;durP2;ratioP2;P2;SDS_P1;SDS_P2;PMS_P1;PMS_P2;Temp;Humidity;BMP_temperature;BMP_pressure;BME280_temperature;BME280_humidity;BME280_pressure;Samples;Min_cycle;Max_cycle;Signal;HPM_P1;HPM_P2
2021/03/25 00:01:08;;;;;;;16.20;9.55;;;;;;;6.79;59.60;98459.78;4989362;28;20228;-80
2021/03/25 00:03:36;;;;;;;17.27;9.57;;;;;;;6.75;59.98;98457.22;4988858;28;20233;-80
2021/03/25 00:06:02;;;;;;;13.50;8.95;;;;;;;6.74;59.19;98447.72;4983956;28;20641;-80
2021/03/25 00:08:28;;;;;;;16.30;10.00;;;;;;;6.69;59.69;98459.94;4990562;28;20310;-80
2021/03/25 00:10:55;;;;;;;16.70;10.50;;;;;;;6.59;59.93;98458.38;4985607;28;20219;-80
2021/03/25 00:13:21;;;;;;;15.90;9.48;;;;;;;6.54;59.27;98457.59;4987540;28;20247;-80
2021/03/25 00:15:47;;;;;;;14.20;9.35;;;;;;;6.55;59.74;98456.72;4985189;28;20272;-80
2021/03/25 00:18:15;;;;;;;17.75;9.65;;;;;;;6.57;59.83;98458.41;4981379;28;20224;-81
2021/03/25 00:20:42;;;;;;;11.67;8.40;;;;;;;6.57;60.04;98455.81;4985182;28;20238;-80
2021/03/25 00:23:08;;;;;;;16.23;10.00;;;;;;;6.53;60.23;98453.31;4985301;28;20244;-80
2021/03/25 00:25:37;;;;;;;15.68;9.00;;;;;;;6.48;60.22;98455.13;4988461;28;20935;-80
2021/03/25 00:28:04;;;;;;;13.93;9.15;;;;;;;6.45;60.27;98449.97;4985186;28;20236;-80
2021/03/25 00:30:31;;;;;;;13.68;8.82;;;;;;;6.45;60.08;98449.97;4983742;28;20222;-80
2021/03/25 00:32:59;;;;;;;13.45;7.90;;;;;;;6.50;60.91;98445.56;4985473;28;20239;-80
2021/03/25 00:35:27;;;;;;;13.07;9.18;;;;;;;6.49;60.70;98446.47;4988041;28;20208;-80
2021/03/25 00:37:54;;;;;;;14.45;9.13;;;;;;;6.50;60.47;98448.16;4981654;28;20217;-80
2021/03/25 00:40:20;;;;;;;13.05;8.93;;;;;;;6.45;60.80;98447.38;4983871;28;20253;-80
2021/03/25 00:42:47;;;;;;;15.60;9.02;;;;;;;6.40;61.54;98444.03;4990149;28;20271;-80
2021/03/25 00:45:15;;;;;;;15.10;8.98;;;;;;;6.41;60.90;98443.16;4977688;28;20915;-79
2021/03/25 00:47:42;;;;;;;15.10;9.55;;;;;;;6.43;60.76;98442.22;4986801;28;20244;-80
2021/03/25 00:50:09;;;;;;;14.70;8.70;;;;;;;6.46;60.27;98441.34;4983249;28;20220;-80
2021/03/25 00:52:37;;;;;;;15.52;9.20;;;;;;;6.40;60.31;98441.47;4990396;28;20629;-81
2021/03/25 00:55:04;;;;;;;17.25;10.15;;;;;;;6.42;60.50;98439.69;4984975;28;20223;-79
2021/03/25 00:57:30;;;;;;;18.38;9.75;;;;;;;6.43;60.44;98443.97;4986822;28;20207;-80
2021/03/25 00:59:56;;;;;;;18.08;10.00;;;;;;;6.41;60.55;98443.16;4987126;28;20216;-80
2021/03/25 01:02:22;;;;;;;17.08;10.15;;;;;;;6.37;60.30;98438.00;4980765;28;20217;-80
2021/03/25 01:04:48;;;;;;;15.30;9.50;;;;;;;6.31;60.11;98442.47;4980510;28;20702;-79
2021/03/25 01:07:17;;;;;;;16.77;9.43;;;;;;;6.31;60.25;98438.13;4979509;28;20755;-81
2021/03/25 01:09:44;;;;;;;15.25;8.52;;;;;;;6.32;60.46;98439.84;4983477;28;20615;-81
2021/03/25 01:12:10;;;;;;;15.98;9.30;;;;;;;6.32;60.18;98429.47;4988262;28;20254;-80
2021/03/25 01:14:37;;;;;;;14.27;8.85;;;;;;;6.32;60.58;98432.06;4983617;28;20445;-80
2021/03/25 01:17:05;;;;;;;14.50;8.50;;;;;;;6.31;60.21;98422.56;4985384;28;20216;-80
2021/03/25 01:19:33;;;;;;;14.88;8.80;;;;;;;6.31;60.28;98422.56;4988479;28;20212;-80
2021/03/25 01:22:00;;;;;;;12.33;8.30;;;;;;;6.35;60.28;98424.22;4981685;28;20231;-81
2021/03/25 01:24:26;;;;;;;15.00;9.60;;;;;;;6.37;60.33;98426.81;4981436;28;20717;-81
2021/03/25 01:26:54;;;;;;;13.52;9.13;;;;;;;6.37;60.26;98425.06;4982398;28;20247;-80
2021/03/25 01:29:20;;;;;;;13.90;9.05;;;;;;;6.32;60.59;98420.84;4982775;28;20219;-80
2021/03/25 01:31:47;;;;;;;15.75;9.23;;;;;;;6.30;60.03;98418.25;4981865;28;20444;-80
2021/03/25 01:34:15;;;;;;;14.45;9.05;;;;;;;6.27;60.26;98423.53;4981789;28;20240;-81
2021/03/25 01:36:41;;;;;;;13.35;8.35;;;;;;;6.25;60.40;98412.34;4984901;28;20901;-80
2021/03/25 01:39:07;;;;;;;12.90;8.70;;;;;;;6.24;60.21;98413.19;4983855;28;20268;-80
2021/03/25 01:41:36;;;;;;;12.90;8.70;;;;;;;6.26;60.41;98413.19;4984843;28;20223;-80
2021/03/25 01:44:04;;;;;;;14.27;8.18;;;;;;;6.26;60.59;98411.44;4980899;28;20309;-80
2021/03/25 01:46:32;;;;;;;13.52;8.13;;;;;;;6.23;60.69;98414.09;4981061;28;20243;-80
2021/03/25 01:49:01;;;;;;;14.07;8.80;;;;;;;6.17;60.23;98409.00;4979604;28;20231;-82
2021/03/25 01:51:39;;;;;;;13.80;8.55;;;;;;;6.14;60.30;98414.25;4983069;28;20224;-81
2021/03/25 01:54:23;;;;;;;13.98;8.90;;;;;;;6.12;60.22;98413.38;4981695;28;20236;-80
2021/03/25 01:57:03;;;;;;;12.85;8.25;;;;;;;6.13;60.53;98407.34;4981297;28;21083;-79
2021/03/25 01:59:49;;;;;;;13.98;8.25;;;;;;;6.12;60.37;98405.63;4980803;28;20653;-81
2021/03/25 02:02:17;;;;;;;14.60;8.70;;;;;;;6.14;60.67;98404.72;4978863;28;20216;-80
2021/03/25 02:04:57;;;;;;;14.60;8.37;;;;;;;6.12;60.66;98397.84;4987254;28;20246;-80
2021/03/25 02:07:31;;;;;;;16.80;8.45;;;;;;;6.13;60.53;98397.00;4981900;28;20228;-80
2021/03/25 02:10:01;;;;;;;14.48;8.93;;;;;;;6.14;60.12;98398.72;4980035;28;20222;-79
2021/03/25 02:12:32;;;;;;;15.65;8.95;;;;;;;6.14;60.14;98393.53;4984681;28;20364;-80
2021/03/25 02:15:07;;;;;;;14.85;8.50;;;;;;;6.15;60.37;98395.22;4983804;28;20224;-79
2021/03/25 02:17:36;;;;;;;14.05;8.55;;;;;;;6.17;60.06;98394.31;4982239;28;20676;-80
2021/03/25 02:20:25;;;;;;;13.27;8.18;;;;;;;6.15;60.04;98395.22;4985505;28;20743;-80
2021/03/25 02:23:01;;;;;;;14.38;8.82;;;;;;;6.12;60.25;98392.69;4985807;28;20290;-80
2021/03/25 02:25:29;;;;;;;14.25;9.05;;;;;;;6.10;60.30;98391.84;4983064;28;20226;-81
2021/03/25 02:27:59;;;;;;;12.13;8.43;;;;;;;6.07;60.24;98386.75;4982108;28;20247;-82
2021/03/25 02:30:32;;;;;;;12.07;8.52;;;;;;;6.08;60.09;98388.44;4983833;28;20708;-82
2021/03/25 02:33:00;;;;;;;13.88;9.13;;;;;;;6.07;60.08;98386.75;4981173;28;20236;-82
2021/03/25 02:35:28;;;;;;;12.98;8.20;;;;;;;6.06;60.22;98385.03;4979832;28;20224;-82
2021/03/25 02:37:59;;;;;;;13.45;9.07;;;;;;;6.05;59.84;98375.56;4979880;28;20216;-81
2021/03/25 02:40:29;;;;;;;14.98;8.68;;;;;;;6.03;60.09;98380.75;4985891;28;20696;-81
2021/03/25 02:42:59;;;;;;;13.85;8.63;;;;;;;6.03;60.17;98382.47;4981046;28;20246;-82
2021/03/25 02:45:28;;;;;;;14.35;9.18;;;;;;;6.00;60.37;98379.94;4981394;28;20224;-81
2021/03/25 02:47:57;;;;;;;16.10;9.40;;;;;;;5.98;60.80;98379.97;4984353;28;20240;-82
2021/03/25 02:50:29;;;;;;;15.25;8.95;;;;;;;5.98;60.61;98378.22;4987398;28;20633;-81
2021/03/25 02:52:59;;;;;;;14.13;8.60;;;;;;;5.93;60.44;98369.63;4988693;28;20314;-81
2021/03/25 02:55:25;;;;;;;15.38;9.02;;;;;;;5.90;60.99;98371.44;4991101;28;20217;-81
2021/03/25 02:57:58;;;;;;;15.27;8.63;;;;;;;5.90;61.85;98379.19;4985253;28;20212;-82
2021/03/25 03:00:27;;;;;;;14.43;9.43;;;;;;;5.92;61.42;98373.13;4987669;28;20299;-81
2021/03/25 03:02:56;;;;;;;13.60;8.55;;;;;;;5.97;61.43;98381.72;4987882;28;20235;-81
2021/03/25 03:05:25;;;;;;;14.35;8.75;;;;;;;6.00;61.82;98382.53;4988039;28;20208;-81
2021/03/25 03:07:56;;;;;;;14.38;9.57;;;;;;;6.00;61.24;98370.44;4986345;28;20248;-81
2021/03/25 03:10:26;;;;;;;14.82;8.13;;;;;;;6.00;60.76;98374.78;4985146;28;20224;-81
2021/03/25 03:12:54;;;;;;;15.40;9.00;;;;;;;5.98;60.77;98374.78;4987186;28;20839;-81
2021/03/25 03:15:23;;;;;;;14.90;8.80;;;;;;;5.95;60.61;98375.69;4986602;28;20222;-82
2021/03/25 03:17:51;;;;;;;15.13;8.68;;;;;;;5.95;60.58;98370.50;4985595;28;20852;-82
2021/03/25 03:20:22;;;;;;;12.98;8.20;;;;;;;5.90;60.79;98374.88;4985892;28;20219;-80
2021/03/25 03:22:49;;;;;;;13.32;8.43;;;;;;;5.83;60.81;98378.44;4980134;28;20247;-81
2021/03/25 03:25:19;;;;;;;12.73;7.82;;;;;;;5.78;60.78;98375.91;4986081;28;20220;-81
2021/03/25 03:27:49;;;;;;;15.80;8.73;;;;;;;5.76;61.09;98376.84;4985834;28;20319;-82
2021/03/25 03:30:20;;;;;;;13.57;8.52;;;;;;;5.77;60.86;98373.34;4986135;28;20702;-81
2021/03/25 03:32:50;;;;;;;14.27;9.00;;;;;;;5.80;60.76;98371.56;4984137;28;20237;-81
2021/03/25 03:35:20;;;;;;;13.57;8.95;;;;;;;5.82;60.70;98371.56;4986850;28;20217;-81
2021/03/25 03:37:49;;;;;;;15.48;8.98;;;;;;;5.82;61.09;98381.91;4983161;28;20220;-82
2021/03/25 03:40:17;;;;;;;15.20;8.77;;;;;;;5.81;60.94;98372.44;4983590;28;20236;-82
2021/03/25 03:42:44;;;;;;;14.20;8.68;;;;;;;5.78;61.10;98377.66;4984373;28;20244;-81
2021/03/25 03:45:13;;;;;;;11.63;8.23;;;;;;;5.78;61.63;98380.25;4984340;28;20789;-81
2021/03/25 03:47:42;;;;;;;12.60;8.48;;;;;;;5.77;61.19;98379.41;4984197;28;20270;-81
2021/03/25 03:50:13;;;;;;;10.77;7.68;;;;;;;5.77;60.96;98379.41;4981746;28;20223;-81
2021/03/25 03:52:40;;;;;;;12.82;8.35;;;;;;;5.74;60.92;98383.78;4983816;28;20832;-81
2021/03/25 03:55:10;;;;;;;14.38;8.30;;;;;;;5.72;61.08;98382.94;4987141;28;20271;-81
2021/03/25 03:57:39;;;;;;;15.37;8.47;;;;;;;5.71;60.93;98378.63;4979488;28;20231;-81
2021/03/25 04:00:10;;;;;;;14.40;8.50;;;;;;;5.64;61.32;98382.19;4984185;28;20221;-81
2021/03/25 04:02:40;;;;;;;15.95;9.40;;;;;;;5.60;61.33;98376.22;4978660;28;20228;-81
2021/03/25 04:05:12;;;;;;;13.50;8.25;;;;;;;5.53;61.09;98385.81;4984613;28;20267;-81
2021/03/25 04:07:42;;;;;;;16.20;8.52;;;;;;;5.50;60.97;98375.50;4987452;28;20255;-81
2021/03/25 04:10:14;;;;;;;13.65;8.48;;;;;;;5.50;61.63;98379.81;4986567;28;20219;-81
2021/03/25 04:12:44;;;;;;;17.23;9.15;;;;;;;5.51;61.57;98376.34;4982766;28;20230;-82
2021/03/25 04:15:14;;;;;;;15.20;8.95;;;;;;;5.50;61.19;98380.66;4985203;28;20265;-82
2021/03/25 04:17:42;;;;;;;14.80;8.60;;;;;;;5.46;61.57;98373.84;4982924;28;20283;-81
2021/03/25 04:20:13;;;;;;;18.77;8.80;;;;;;;5.46;61.54;98379.00;4987247;28;20216;-81
2021/03/25 04:22:43;;;;;;;15.10;8.70;;;;;;;5.46;61.66;98375.53;4982828;28;20219;-80
2021/03/25 04:25:14;;;;;;;12.50;8.63;;;;;;;5.46;61.59;98381.59;4985917;28;20208;-81
2021/03/25 04:27:43;;;;;;;15.73;8.70;;;;;;;5.46;61.65;98379.00;4984343;28;20282;-81
2021/03/25 04:30:12;;;;;;;14.90;8.18;;;;;;;5.46;61.25;98376.44;4986734;28;20222;-81
2021/03/25 04:32:38;;;;;;;14.48;8.90;;;;;;;5.45;61.61;98377.28;4986154;28;20213;-81
2021/03/25 04:35:06;;;;;;;12.60;8.25;;;;;;;5.47;61.86;98378.13;4983486;28;20220;-81
2021/03/25 04:37:32;;;;;;;14.45;8.57;;;;;;;5.45;61.67;98379.03;4985361;28;20216;-82
2021/03/25 04:39:59;;;;;;;13.65;8.13;;;;;;;5.45;61.29;98377.28;4989883;28;20219;-81
2021/03/25 04:42:27;;;;;;;14.47;8.47;;;;;;;5.42;61.58;98385.09;4986186;28;20216;-81
2021/03/25 04:45:00;;;;;;;16.17;8.63;;;;;;;5.42;61.70;98382.50;4986091;28;20217;-82
2021/03/25 04:47:29;;;;;;;15.57;9.02;;;;;;;5.41;61.33;98391.16;4984850;28;20225;-82
2021/03/25 04:49:56;;;;;;;13.35;8.60;;;;;;;5.34;62.13;98392.09;4984895;28;20227;-81
2021/03/25 04:52:24;;;;;;;15.52;9.18;;;;;;;5.24;61.45;98386.22;4979411;28;20618;-81
2021/03/25 04:54:51;;;;;;;16.73;9.48;;;;;;;5.10;61.94;98396.72;4979830;28;20223;-81
2021/03/25 04:57:24;;;;;;;15.98;8.98;;;;;;;5.06;62.12;98389.88;4983192;28;20220;-81
2021/03/25 04:59:52;;;;;;;14.90;9.10;;;;;;;5.11;62.89;98392.41;4982588;28;20220;-81
2021/03/25 05:02:18;;;;;;;16.85;9.23;;;;;;;5.15;62.16;98389.78;4983313;28;20222;-80
2021/03/25 05:04:48;;;;;;;15.80;8.48;;;;;;;5.21;62.32;98394.00;4986552;28;20232;-81
2021/03/25 05:07:18;;;;;;;12.80;8.57;;;;;;;5.24;62.04;98383.63;4979558;28;20244;-81
2021/03/25 05:09:44;;;;;;;12.95;8.38;;;;;;;5.29;62.28;98391.31;4985765;28;20226;-81
2021/03/25 05:12:15;;;;;;;16.70;8.63;;;;;;;5.29;61.96;98383.56;4981955;28;20228;-81
2021/03/25 05:14:42;;;;;;;15.20;8.32;;;;;;;5.28;62.62;98382.69;4982371;28;20243;-81
2021/03/25 05:17:20;;;;;;;15.50;8.90;;;;;;;5.27;62.75;98386.16;4986771;28;20220;-81
2021/03/25 05:19:54;;;;;;;16.10;8.23;;;;;;;5.28;62.68;98385.28;4982975;28;20213;-80
2021/03/25 05:22:23;;;;;;;15.98;8.18;;;;;;;5.28;62.13;98387.88;4982018;28;20212;-81
2021/03/25 05:24:57;;;;;;;16.03;9.03;;;;;;;5.26;62.07;98388.78;4981092;28;20303;-81
2021/03/25 05:27:28;;;;;;;14.13;8.70;;;;;;;5.21;61.79;98400.03;4985123;28;20237;-81
2021/03/25 05:29:55;;;;;;;13.80;8.18;;;;;;;5.16;61.93;98396.63;4981570;28;20215;-80
2021/03/25 05:32:26;;;;;;;14.70;8.70;;;;;;;5.09;62.00;98397.63;4979188;28;20747;-81
2021/03/25 05:34:53;;;;;;;16.20;8.55;;;;;;;5.02;62.31;98404.59;4983926;28;20215;-81
2021/03/25 05:37:20;;;;;;;17.23;8.60;;;;;;;5.02;62.47;98403.75;4984333;28;20237;-81
2021/03/25 05:39:46;;;;;;;14.90;8.70;;;;;;;5.06;62.33;98410.56;4984574;28;20283;-82
2021/03/25 05:42:20;;;;;;;14.82;8.93;;;;;;;5.09;62.23;98404.50;4982155;28;20223;-80
2021/03/25 05:45:17;;;;;;;13.23;8.70;;;;;;;5.13;62.03;98411.38;4979717;28;20243;-81
2021/03/25 05:47:59;;;;;;;15.13;9.00;;;;;;;5.14;61.99;98411.31;4983807;28;20216;-81
2021/03/25 05:50:31;;;;;;;14.85;8.30;;;;;;;5.17;62.19;98418.19;4989334;28;20211;-82
2021/03/25 05:53:05;;;;;;;14.50;8.07;;;;;;;5.19;62.41;98412.13;4976745;28;20482;-82
2021/03/25 05:55:56;;;;;;;15.88;8.95;;;;;;;5.19;62.62;98406.94;4982940;28;20242;-81
2021/03/25 05:58:34;;;;;;;12.48;7.72;;;;;;;5.12;62.33;98405.31;4974910;28;20850;-82
2021/03/25 06:01:11;;;;;;;15.80;9.43;;;;;;;5.11;62.23;98408.78;4978478;28;20725;-81
2021/03/25 06:03:39;;;;;;;14.47;8.37;;;;;;;5.11;62.58;98408.78;4972508;28;20243;-81
2021/03/25 06:06:14;;;;;;;13.68;7.97;;;;;;;5.12;62.37;98402.72;4985738;28;20216;-82
2021/03/25 06:08:46;;;;;;;17.88;9.15;;;;;;;5.10;62.40;98403.63;4983384;28;20345;-83
2021/03/25 06:11:24;;;;;;;13.90;8.25;;;;;;;5.10;62.41;98407.06;4981445;28;20223;-82
2021/03/25 06:14:01;;;;;;;14.85;8.60;;;;;;;5.14;62.55;98408.72;4984859;28;20242;-83
2021/03/25 06:16:44;;;;;;;13.10;8.15;;;;;;;5.18;62.63;98406.97;4984037;28;21031;-82
2021/03/25 06:19:40;;;;;;;17.17;8.87;;;;;;;5.21;62.84;98410.38;4986548;28;20204;-82
2021/03/25 06:22:19;;;;;;;17.33;8.80;;;;;;;5.28;63.12;98411.16;4971406;28;20224;-83
2021/03/25 06:25:09;;;;;;;17.33;8.63;;;;;;;5.29;63.18;98412.84;4985950;28;20240;-84
2021/03/25 06:27:46;;;;;;;18.60;9.82;;;;;;;5.29;63.19;98414.59;4989782;28;20780;-83
2021/03/25 06:30:18;;;;;;;16.40;9.07;;;;;;;5.31;63.15;98410.25;4989045;28;20207;-82
2021/03/25 06:32:50;;;;;;;14.27;9.40;;;;;;;5.29;63.53;98418.03;4987728;28;20209;-82
2021/03/25 06:35:20;;;;;;;17.85;9.40;;;;;;;5.28;63.71;98421.50;4986866;28;20209;-82
2021/03/25 06:37:53;;;;;;;16.70;9.05;;;;;;;5.29;63.63;98418.03;4986778;28;20685;-82
2021/03/25 06:40:22;;;;;;;15.60;9.23;;;;;;;5.28;63.78;98416.34;4990050;28;20316;-82
2021/03/25 06:42:51;;;;;;;14.50;8.70;;;;;;;5.31;63.66;98425.78;4987831;28;20243;-82
2021/03/25 06:45:21;;;;;;;23.80;10.40;;;;;;;5.32;63.95;98422.31;4985511;28;20220;-82
2021/03/25 06:47:52;;;;;;;17.08;10.07;;;;;;;5.31;64.16;98424.06;4983980;28;20920;-83
2021/03/25 06:50:24;;;;;;;17.48;9.98;;;;;;;5.34;64.07;98436.09;4986149;28;20220;-82
2021/03/25 06:52:52;;;;;;;19.35;9.60;;;;;;;5.37;64.35;98438.66;4991180;28;20808;-82
2021/03/25 06:55:22;;;;;;;15.38;9.50;;;;;;;5.40;64.41;98434.28;4985473;28;20226;-82
2021/03/25 06:57:55;;;;;;;19.98;9.95;;;;;;;5.45;64.61;98436.78;4988562;28;20234;-82
2021/03/25 07:00:23;;;;;;;20.35;10.43;;;;;;;5.48;64.20;98438.50;4991497;28;20699;-82
2021/03/25 07:02:50;;;;;;;18.08;10.82;;;;;;;5.51;64.63;98444.47;4991734;28;20247;-82
2021/03/25 07:05:24;;;;;;;16.67;9.52;;;;;;;5.54;64.70;98443.59;4988109;28;20226;-82
2021/03/25 07:08:00;;;;;;;17.58;9.88;;;;;;;5.58;64.86;98450.44;4986949;28;20227;-82
2021/03/25 07:10:26;;;;;;;20.50;10.85;;;;;;;5.63;65.09;98447.78;4988365;28;20215;-82
2021/03/25 07:12:52;;;;;;;21.48;11.52;;;;;;;5.71;65.09;98445.94;4986268;28;20307;-82
2021/03/25 07:15:23;;;;;;;17.65;10.40;;;;;;;5.77;64.93;98444.13;4991017;28;20228;-83
2021/03/25 07:17:49;;;;;;;17.73;9.43;;;;;;;5.86;64.88;98443.09;4987993;28;20263;-83
2021/03/25 07:20:21;;;;;;;17.80;9.75;;;;;;;5.94;65.15;98443.88;4986839;28;20575;-82
2021/03/25 07:23:03;;;;;;;20.48;10.60;;;;;;;6.04;65.11;98448.94;4979178;28;20239;-81
2021/03/25 07:25:31;;;;;;;23.15;10.88;;;;;;;6.11;65.10;98440.19;4985820;28;20211;-82
2021/03/25 07:27:59;;;;;;;17.80;10.65;;;;;;;6.18;65.13;98444.41;4990953;28;20236;-82
2021/03/25 07:30:26;;;;;;;19.15;10.27;;;;;;;6.25;65.45;98448.59;4986978;28;20216;-83
2021/03/25 07:32:55;;;;;;;17.98;10.75;;;;;;;6.32;65.21;98447.63;4988568;28;20243;-83
2021/03/25 07:35:29;;;;;;;20.85;11.20;;;;;;;6.44;65.33;98445.69;4990672;28;20279;-82
2021/03/25 07:37:56;;;;;;;16.52;9.77;;;;;;;6.54;65.05;98449.81;4984307;28;20246;-83
2021/03/25 07:40:28;;;;;;;19.88;10.65;;;;;;;6.64;65.28;98442.75;4988586;28;20274;-82
2021/03/25 07:42:58;;;;;;;21.08;10.80;;;;;;;6.74;65.45;98442.53;4992952;28;20240;-82
2021/03/25 07:45:31;;;;;;;17.73;10.75;;;;;;;6.88;65.43;98451.81;4990711;28;20565;-82
2021/03/25 07:48:16;;;;;;;18.73;10.70;;;;;;;6.99;65.29;98452.47;4989888;28;20227;-82
2021/03/25 07:50:44;;;;;;;18.70;10.40;;;;;;;7.14;64.69;98446.97;4988789;28;20223;-82
2021/03/25 07:53:20;;;;;;;16.85;10.18;;;;;;;7.29;64.69;98450.97;4981854;28;20247;-83
2021/03/25 07:55:46;;;;;;;19.30;10.75;;;;;;;7.42;64.73;98450.75;4985603;28;20323;-83
2021/03/25 07:58:33;;;;;;;17.73;10.60;;;;;;;7.52;64.92;98447.91;4992259;28;20273;-81
2021/03/25 08:01:08;;;;;;;21.15;11.20;;;;;;;7.64;64.63;98445.94;4987739;28;20224;-83
2021/03/25 08:03:45;;;;;;;21.90;11.50;;;;;;;7.75;64.18;98443.09;4988746;28;20265;-83
2021/03/25 08:06:22;;;;;;;18.25;10.80;;;;;;;7.89;64.69;98449.69;4985067;28;20826;-82
2021/03/25 08:08:59;;;;;;;17.75;10.65;;;;;;;8.00;64.06;98448.59;4986104;28;20231;-82
2021/03/25 08:11:26;;;;;;;20.15;11.93;;;;;;;8.11;64.13;98446.59;4983475;28;20208;-82
2021/03/25 08:13:54;;;;;;;17.80;11.05;;;;;;;8.22;63.95;98449.78;4986117;28;20239;-83
2021/03/25 08:16:21;;;;;;;18.33;10.93;;;;;;;8.34;64.30;98443.44;4986419;28;20251;-84
2021/03/25 08:18:59;;;;;;;18.05;10.40;;;;;;;8.50;63.85;98438.75;4984792;28;20267;-83
2021/03/25 08:21:39;;;;;;;20.73;11.90;;;;;;;8.65;63.64;98438.31;4987748;28;20757;-83
2021/03/25 08:24:22;;;;;;;18.35;11.05;;;;;;;8.76;63.31;98435.44;4985469;28;20410;-82
2021/03/25 08:27:00;;;;;;;20.02;11.68;;;;;;;8.92;63.26;98440.25;4988586;28;20261;-82
2021/03/25 08:29:30;;;;;;;41.15;25.35;;;;;;;9.03;63.19;98449.47;4986419;28;20598;-83
2021/03/25 08:32:07;;;;;;;18.98;11.43;;;;;;;9.16;62.96;98438.72;4983567;28;20597;-83
2021/03/25 08:34:52;;;;;;;19.13;10.95;;;;;;;9.30;62.51;98438.31;4982883;28;20240;-82
2021/03/25 08:37:29;;;;;;;18.75;10.43;;;;;;;9.40;62.19;98432.78;4982079;28;20228;-84
2021/03/25 08:40:01;;;;;;;20.30;10.55;;;;;;;9.55;61.87;98425.44;4984697;28;20207;-83
2021/03/25 08:42:29;;;;;;;17.77;10.15;;;;;;;9.64;61.83;98417.34;4984831;28;20312;-83
2021/03/25 08:45:04;;;;;;;18.23;11.13;;;;;;;9.78;61.27;98417.78;4988621;28;20310;-83
2021/03/25 08:47:36;;;;;;;19.10;10.95;;;;;;;9.90;61.52;98420.88;4980698;28;20251;-83
2021/03/25 08:50:17;;;;;;;16.05;10.27;;;;;;;10.01;61.00;98424.00;4984303;28;20272;-83
2021/03/25 08:52:44;;;;;;;22.42;11.63;;;;;;;10.14;61.08;98420.09;4985422;28;20211;-83
2021/03/25 08:55:23;;;;;;;17.05;10.18;;;;;;;10.27;61.21;98419.69;4986151;28;20219;-83
2021/03/25 08:57:51;;;;;;;19.40;10.63;;;;;;;10.39;60.52;98419.34;4983163;28;20217;-83
2021/03/25 09:00:21;;;;;;;18.30;10.65;;;;;;;10.53;60.55;98416.25;4983935;28;20230;-83
2021/03/25 09:02:50;;;;;;;17.10;9.77;;;;;;;10.67;60.45;98418.38;4987785;28;20601;-83
2021/03/25 09:05:19;;;;;;;18.02;10.25;;;;;;;10.78;59.88;98421.47;4985259;28;20820;-83
2021/03/25 09:07:47;;;;;;;16.05;10.35;;;;;;;10.89;60.03;98414.13;4983593;28;20295;-84
2021/03/25 09:10:34;;;;;;;17.70;10.43;;;;;;;11.02;59.48;98413.69;4987466;28;20281;-84
2021/03/25 09:13:00;;;;;;;15.40;9.30;;;;;;;11.15;59.20;98413.16;4980991;28;20251;-84
2021/03/25 09:15:41;;;;;;;15.75;9.85;;;;;;;11.29;58.25;98417.88;4986590;28;20231;-83
2021/03/25 09:18:09;;;;;;;14.95;9.40;;;;;;;11.42;57.61;98412.22;4982798;28;20298;-83
2021/03/25 09:20:45;;;;;;;15.65;9.60;;;;;;;11.57;57.72;98416.84;4982593;28;20616;-84
2021/03/25 09:23:39;;;;;;;13.43;8.75;;;;;;;11.70;56.83;98412.84;4984346;28;20729;-84
2021/03/25 09:26:38;;;;;;;13.30;9.13;;;;;;;11.86;56.79;98407.03;4983978;28;20220;-84
2021/03/25 09:29:06;;;;;;;15.13;8.18;;;;;;;11.99;57.07;98410.88;4985628;28;20243;-84
2021/03/25 09:31:35;;;;;;;13.07;8.85;;;;;;;12.14;56.14;98412.00;4991614;28;20223;-83
2021/03/25 09:34:02;;;;;;;16.67;9.60;;;;;;;12.25;56.00;98406.34;4985517;28;20722;-84
2021/03/25 09:36:40;;;;;;;13.75;7.95;;;;;;;12.43;55.28;98413.44;4978182;28;20221;-84
2021/03/25 09:39:20;;;;;;;12.55;8.02;;;;;;;12.62;53.80;98404.81;4988156;28;21017;-83
2021/03/25 09:41:49;;;;;;;12.85;6.32;;;;;;;12.92;53.42;98400.00;4988192;28;20702;-84
2021/03/25 09:44:26;;;;;;;13.65;6.05;;;;;;;13.12;52.72;98404.34;4982041;28;20243;-84
2021/03/25 09:47:09;;;;;;;10.25;6.20;;;;;;;13.44;51.80;98396.84;4988062;28;20216;-83
2021/03/25 09:49:38;;;;;;;11.88;6.30;;;;;;;13.59;51.36;98396.09;4983748;28;20223;-84
2021/03/25 09:52:31;;;;;;;10.00;6.22;;;;;;;13.68;50.36;98393.06;4987237;28;20215;-84
2021/03/25 09:55:19;;;;;;;12.10;7.60;;;;;;;13.73;50.97;98391.97;4963322;28;20622;-83
2021/03/25 09:57:47;;;;;;;12.25;5.95;;;;;;;13.80;50.24;98390.75;4984818;28;20243;-83
2021/03/25 10:00:29;;;;;;;11.20;6.10;;;;;;;14.05;48.94;98393.91;4981725;28;20223;-83
2021/03/25 10:02:56;;;;;;;9.70;5.68;;;;;;;14.25;49.03;98381.59;4985201;28;20246;-84
2021/03/25 10:05:37;;;;;;;12.43;6.85;;;;;;;14.38;48.48;98385.28;4987092;28;20329;-83
2021/03/25 10:08:07;;;;;;;10.93;6.35;;;;;;;14.38;47.78;98374.78;4979702;28;20732;-84
2021/03/25 10:10:39;;;;;;;13.05;6.10;;;;;;;14.48;47.36;98384.81;4985270;28;20239;-83
2021/03/25 10:13:36;;;;;;;7.85;4.65;;;;;;;14.67;46.51;98380.38;4986283;28;20331;-83
2021/03/25 10:16:05;;;;;;;7.43;4.78;;;;;;;14.84;46.30;98367.19;4986014;28;20932;-84
2021/03/25 10:19:00;;;;;;;7.90;4.97;;;;;;;14.95;44.58;98368.44;4987070;28;20573;-83
2021/03/25 10:22:00;;;;;;;7.63;4.80;;;;;;;14.91;43.00;98369.53;4983642;28;20403;-84
2021/03/25 10:24:30;;;;;;;8.43;4.68;;;;;;;14.92;43.32;98366.78;4983282;28;20237;-84
2021/03/25 10:27:04;;;;;;;11.82;8.80;;;;;;;14.95;43.46;98360.53;4983674;28;20225;-83
2021/03/25 10:29:35;;;;;;;13.35;5.40;;;;;;;14.98;43.99;98363.00;4985889;28;20220;-84
2021/03/25 10:32:03;;;;;;;6.43;4.18;;;;;;;15.12;43.33;98365.72;4984760;28;20215;-84
2021/03/25 10:34:32;;;;;;;5.53;4.10;;;;;;;15.29;42.69;98350.84;4982581;28;20240;-84
2021/03/25 10:37:03;;;;;;;6.57;3.65;;;;;;;15.41;42.60;98360.69;4980332;28;20220;-84
2021/03/25 10:39:32;;;;;;;6.13;3.58;;;;;;;15.57;42.82;98348.38;4984737;28;20302;-83
2021/03/25 10:42:12;;;;;;;6.35;4.05;;;;;;;15.67;41.66;98347.88;4983665;28;20306;-82
2021/03/25 10:44:38;;;;;;;6.47;4.13;;;;;;;15.62;42.04;98342.84;4985279;28;20741;-84
2021/03/25 10:47:07;;;;;;;8.90;4.50;;;;;;;15.68;42.05;98346.91;4988961;28;20588;-84
2021/03/25 10:49:42;;;;;;;7.53;4.50;;;;;;;15.77;41.96;98342.03;4984741;28;20710;-84
2021/03/25 10:52:17;;;;;;;8.60;5.03;;;;;;;15.89;41.80;98340.47;4985630;28;20277;-83
2021/03/25 10:54:44;;;;;;;6.72;4.28;;;;;;;16.00;42.16;98330.19;4982919;28;20247;-84
2021/03/25 10:57:19;;;;;;;7.63;4.43;;;;;;;16.22;42.14;98328.94;4981984;28;20216;-84
2021/03/25 10:59:54;;;;;;;7.30;4.68;;;;;;;16.48;41.74;98331.81;4983138;28;20213;-85
2021/03/25 11:02:24;;;;;;;10.63;4.85;;;;;;;16.66;40.73;98325.44;4982731;28;20336;-84
2021/03/25 11:05:17;;;;;;;9.05;4.22;;;;;;;16.94;40.27;98318.50;4984815;28;20280;-85
2021/03/25 11:07:46;;;;;;;7.60;4.93;;;;;;;17.20;39.54;98321.31;4987573;28;20276;-84
2021/03/25 11:10:19;;;;;;;8.30;4.50;;;;;;;17.42;39.37;98319.00;4986618;28;20219;-85
2021/03/25 11:12:47;;;;;;;7.18;4.20;;;;;;;17.59;39.19;98322.34;4986223;28;20236;-83
2021/03/25 11:15:20;;;;;;;7.10;4.93;;;;;;;17.69;38.22;98310.25;4985418;28;20230;-84
2021/03/25 11:17:48;;;;;;;7.85;5.30;;;;;;;17.76;39.07;98311.56;4984867;28;20225;-84
2021/03/25 11:20:16;;;;;;;8.77;5.80;;;;;;;17.85;39.06;98310.97;4987745;28;20221;-85
2021/03/25 11:22:46;;;;;;;8.18;5.45;;;;;;;17.94;38.78;98304.25;4988986;28;20216;-85
2021/03/25 11:25:14;;;;;;;9.23;5.03;;;;;;;18.04;38.06;98304.47;4986892;28;20771;-84
2021/03/25 11:27:40;;;;;;;9.32;6.00;;;;;;;18.12;37.85;98302.16;4989959;28;20351;-84
2021/03/25 11:30:23;;;;;;;8.23;5.90;;;;;;;18.17;38.03;98300.06;4986842;28;20718;-84
2021/03/25 11:32:49;;;;;;;8.75;5.40;;;;;;;18.29;38.42;98291.31;4987666;28;20224;-84
2021/03/25 11:35:24;;;;;;;8.20;5.13;;;;;;;18.32;37.70;98297.34;4986560;28;20689;-84
2021/03/25 11:37:51;;;;;;;11.82;6.53;;;;;;;18.33;37.94;98293.75;4984344;28;20606;-85
2021/03/25 11:40:19;;;;;;;9.35;5.32;;;;;;;18.34;37.91;98292.78;4989059;28;20232;-85
2021/03/25 11:42:47;;;;;;;10.60;5.97;;;;;;;18.34;37.96;98288.34;4983122;28;20377;-84
2021/03/25 11:45:43;;;;;;;10.60;5.95;;;;;;;18.29;37.10;98291.31;4989067;28;20220;-84
2021/03/25 11:48:21;;;;;;;9.15;5.95;;;;;;;18.20;36.84;98284.03;4987397;28;20238;-85
2021/03/25 11:50:48;;;;;;;9.63;6.10;;;;;;;18.07;37.23;98280.53;4991121;28;20250;-84
2021/03/25 11:53:33;;;;;;;11.15;6.05;;;;;;;17.79;36.68;98290.25;4989067;28;20335;-84